Time,TemperatureF,DewpointF,PressureIn,WindDirection,WindDirectionDegrees,WindSpeedMPH,WindSpeedGustMPH,Humidity,HourlyPrecipIn,Conditions,Clouds,dailyrainin,SoftwareType,DateUTC
2013-12-26 00:01:00,12.7,2.6,30.46,North,0,0.0,0.0,63,0.00,,,0.00,pywws,2013-12-26 05:01:00,
2013-12-26 00:02:00,12.7,2.6,30.46,North,0,0.0,0.0,63,0.00,,,0.00,pywws,2013-12-26 05:02:00,
2013-12-26 00:03:00,12.9,2.7,30.46,North,0,0.0,0.0,63,0.00,,,0.00,pywws,2013-12-26 05:03:00,
2013-12-26 00:04:00,12.9,2.7,30.46,North,0,0.0,0.0,63,0.00,,,0.00,pywws,2013-12-26 05:04:00,
2013-12-26 00:06:00,13.1,2.9,30.46,North,0,0.0,0.0,63,0.00,,,0.00,pywws,2013-12-26 05:06:00,
2013-12-26 00:16:00,13.1,2.6,30.45,North,0,0.0,0.0,62,0.00,,,0.00,pywws,2013-12-26 05:16:00,
2013-12-26 00:21:00,13.5,2.9,30.45,North,0,0.0,0.0,62,0.00,,,0.00,pywws,2013-12-26 05:21:00,
2013-12-26 00:27:00,13.5,2.9,30.45,North,0,0.0,0.0,62,0.00,,,0.00,pywws,2013-12-26 05:27:00,
2013-12-26 00:35:00,13.8,3.2,30.45,North,0,0.0,0.0,62,0.00,,,0.00,pywws,2013-12-26 05:35:00,
2013-12-26 00:40:00,13.8,3.2,30.44,North,0,0.0,0.0,62,0.00,,,0.00,pywws,2013-12-26 05:40:00,
2013-12-26 00:46:00,13.8,2.9,30.44,North,0,0.0,0.0,61,0.00,,,0.00,pywws,2013-12-26 05:46:00,
2013-12-26 00:52:00,14.0,2.7,30.44,North,0,0.0,0.0,60,0.00,,,0.00,pywws,2013-12-26 05:52:00,
2013-12-26 00:58:00,14.2,2.9,30.43,North,0,0.0,0.0,60,0.00,,,0.00,pywws,2013-12-26 05:58:00,
2013-12-26 01:04:00,14.4,3.0,30.43,North,0,0.0,0.0,60,0.00,,,0.00,pywws,2013-12-26 06:04:00,
2013-12-26 01:09:00,14.7,3.4,30.43,North,0,0.0,0.0,60,0.00,,,0.00,pywws,2013-12-26 06:09:00,
2013-12-26 01:15:00,14.9,3.6,30.43,North,0,0.0,0.0,60,0.00,,,0.00,pywws,2013-12-26 06:15:00,
2013-12-26 01:21:00,15.3,3.9,30.43,North,0,0.0,0.0,60,0.00,,,0.00,pywws,2013-12-26 06:21:00,
2013-12-26 01:27:00,15.4,3.7,30.44,North,0,0.0,0.0,59,0.00,,,0.00,pywws,2013-12-26 06:27:00,
2013-12-26 01:34:00,15.6,3.1,30.43,North,0,0.0,0.0,57,0.00,,,0.00,pywws,2013-12-26 06:34:00,
2013-12-26 01:40:00,16.0,2.7,30.44,North,0,0.0,0.0,55,0.00,,,0.00,pywws,2013-12-26 06:40:00,
2013-12-26 01:46:00,16.2,2.9,30.44,North,0,0.0,0.0,55,0.00,,,0.00,pywws,2013-12-26 06:46:00,
2013-12-26 01:52:00,16.5,3.2,30.44,North,0,0.0,0.0,55,0.00,,,0.00,pywws,2013-12-26 06:52:00,
2013-12-26 01:57:00,16.7,3.4,30.44,North,0,0.0,0.0,55,0.00,,,0.00,pywws,2013-12-26 06:57:00,
2013-12-26 02:03:00,17.1,3.7,30.44,North,0,0.0,0.0,55,0.00,,,0.00,pywws,2013-12-26 07:03:00,
2013-12-26 02:08:00,16.9,3.5,30.44,North,0,0.0,0.0,55,0.00,,,0.00,pywws,2013-12-26 07:08:00,
2013-12-26 02:14:00,17.1,2.9,30.44,North,0,0.0,0.0,53,0.00,,,0.00,pywws,2013-12-26 07:14:00,
2013-12-26 02:20:00,17.2,2.7,30.44,North,0,0.0,0.0,52,0.00,,,0.00,pywws,2013-12-26 07:20:00,
2013-12-26 02:26:00,17.4,2.4,30.44,North,0,0.0,0.0,51,0.00,,,0.00,pywws,2013-12-26 07:26:00,
2013-12-26 02:32:00,17.6,1.7,30.44,North,0,0.0,0.0,49,0.00,,,0.00,pywws,2013-12-26 07:32:00,
2013-12-26 02:37:00,17.8,1.9,30.44,North,0,0.0,0.0,49,0.00,,,0.00,pywws,2013-12-26 07:37:00,
2013-12-26 02:43:00,18.0,1.6,30.44,North,0,0.0,0.0,48,0.00,,,0.00,pywws,2013-12-26 07:43:00,
2013-12-26 02:48:00,18.0,1.6,30.43,North,0,0.0,0.0,48,0.00,,,0.00,pywws,2013-12-26 07:48:00,
2013-12-26 02:54:00,18.0,1.2,30.42,North,0,0.0,0.0,47,0.00,,,0.00,pywws,2013-12-26 07:54:00,
2013-12-26 03:00:00,18.3,1.5,30.43,North,0,0.0,0.0,47,0.00,,,0.00,pywws,2013-12-26 08:00:00,
2013-12-26 03:05:00,18.5,2.6,30.42,East,90,0.0,0.0,49,0.00,,,0.00,pywws,2013-12-26 08:05:00,
2013-12-26 03:11:00,18.5,3.4,30.42,East,90,0.0,0.0,51,0.00,,,0.00,pywws,2013-12-26 08:11:00,
2013-12-26 03:16:00,18.5,3.4,30.42,North,0,0.0,0.0,51,0.00,,,0.00,pywws,2013-12-26 08:16:00,
2013-12-26 03:23:00,18.3,2.8,30.42,North,0,0.0,0.0,50,0.00,,,0.00,pywws,2013-12-26 08:23:00,
2013-12-26 03:28:00,18.7,3.2,30.42,North,0,0.0,0.0,50,0.00,,,0.00,pywws,2013-12-26 08:28:00,
2013-12-26 03:34:00,18.5,3.0,30.42,North,0,0.0,0.0,50,0.00,,,0.00,pywws,2013-12-26 08:34:00,
2013-12-26 03:40:00,18.9,3.8,30.41,North,0,0.0,0.0,51,0.00,,,0.00,pywws,2013-12-26 08:40:00,
2013-12-26 03:46:00,18.9,3.8,30.41,North,0,0.0,0.0,51,0.00,,,0.00,pywws,2013-12-26 08:46:00,
2013-12-26 03:52:00,18.9,3.8,30.41,North,0,0.0,0.0,51,0.00,,,0.00,pywws,2013-12-26 08:52:00,
2013-12-26 03:57:00,18.9,3.8,30.40,North,0,0.0,0.0,51,0.00,,,0.00,pywws,2013-12-26 08:57:00,
2013-12-26 04:03:00,18.9,3.8,30.40,North,0,0.0,0.0,51,0.00,,,0.00,pywws,2013-12-26 09:03:00,
2013-12-26 04:08:00,18.7,3.6,30.39,North,0,0.0,0.0,51,0.00,,,0.00,pywws,2013-12-26 09:08:00,
2013-12-26 04:14:00,18.9,3.8,30.40,North,0,0.0,0.0,51,0.00,,,0.00,pywws,2013-12-26 09:14:00,
2013-12-26 04:20:00,18.9,4.2,30.39,North,0,0.0,0.0,52,0.00,,,0.00,pywws,2013-12-26 09:20:00,
2013-12-26 04:26:00,19.2,4.5,30.39,North,0,0.0,0.0,52,0.00,,,0.00,pywws,2013-12-26 09:26:00,
2013-12-26 04:32:00,18.9,4.2,30.39,North,0,0.0,0.0,52,0.00,,,0.00,pywws,2013-12-26 09:32:00,
2013-12-26 04:38:00,19.0,4.3,30.38,North,0,0.0,0.0,52,0.00,,,0.00,pywws,2013-12-26 09:38:00,
2013-12-26 04:44:00,19.0,4.3,30.39,North,0,0.0,0.0,52,0.00,,,0.00,pywws,2013-12-26 09:44:00,
2013-12-26 04:55:00,19.2,4.9,30.38,North,0,0.0,0.0,53,0.00,,,0.00,pywws,2013-12-26 09:55:00,
2013-12-26 05:02:00,19.0,4.8,30.38,North,0,0.0,0.0,53,0.00,,,0.00,pywws,2013-12-26 10:02:00,
2013-12-26 05:08:00,19.2,4.9,30.38,North,0,0.0,0.0,53,0.00,,,0.00,pywws,2013-12-26 10:08:00,
2013-12-26 05:14:00,19.2,4.9,30.37,North,0,0.0,0.0,53,0.00,,,0.00,pywws,2013-12-26 10:14:00,
2013-12-26 05:20:00,19.2,4.9,30.37,North,0,0.0,0.0,53,0.00,,,0.00,pywws,2013-12-26 10:20:00,
2013-12-26 05:25:00,19.2,5.3,30.37,North,0,0.0,0.0,54,0.00,,,0.00,pywws,2013-12-26 10:25:00,
2013-12-26 05:31:00,19.2,5.3,30.37,North,0,0.0,0.0,54,0.00,,,0.00,pywws,2013-12-26 10:31:00,
2013-12-26 05:36:00,19.4,7.4,30.37,North,0,0.0,0.0,59,0.00,,,0.00,pywws,2013-12-26 10:36:00,
2013-12-26 05:42:00,19.4,7.4,30.37,North,0,0.0,0.0,59,0.00,,,0.00,pywws,2013-12-26 10:42:00,
2013-12-26 05:49:00,19.4,7.4,30.36,North,0,0.0,0.0,59,0.00,,,0.00,pywws,2013-12-26 10:49:00,
2013-12-26 05:55:00,19.4,7.4,30.36,East,90,0.0,0.0,59,0.00,,,0.00,pywws,2013-12-26 10:55:00,
2013-12-26 06:01:00,19.6,7.6,30.36,East,90,0.0,0.0,59,0.00,,,0.00,pywws,2013-12-26 11:01:00,
2013-12-26 06:07:00,19.4,7.8,30.35,East,90,0.0,0.0,60,0.00,,,0.00,pywws,2013-12-26 11:07:00,
2013-12-26 06:13:00,19.6,8.0,30.35,East,90,0.0,0.0,60,0.00,,,0.00,pywws,2013-12-26 11:13:00,
2013-12-26 06:20:00,19.8,8.2,30.34,North,0,0.0,0.0,60,0.00,,,0.00,pywws,2013-12-26 11:20:00,
2013-12-26 06:28:00,19.8,8.5,30.34,East,90,0.0,0.0,61,0.00,,,0.00,pywws,2013-12-26 11:28:00,
2013-12-26 06:33:00,19.9,8.7,30.34,East,90,0.0,0.0,61,0.00,,,0.00,pywws,2013-12-26 11:33:00,
2013-12-26 06:40:00,20.1,8.9,30.34,East,90,0.0,0.0,61,0.00,,,0.00,pywws,2013-12-26 11:40:00,
2013-12-26 06:46:00,20.1,9.2,30.34,East,90,0.0,0.0,62,0.00,,,0.00,pywws,2013-12-26 11:46:00,
2013-12-26 06:52:00,19.9,9.0,30.33,NW,315,0.0,0.0,62,0.00,,,0.00,pywws,2013-12-26 11:52:00,
2013-12-26 06:57:00,19.9,9.0,30.33,North,0,0.0,0.0,62,0.00,,,0.00,pywws,2013-12-26 11:57:00,
2013-12-26 07:03:00,19.9,9.0,30.33,East,90,0.0,0.0,62,0.00,,,0.00,pywws,2013-12-26 12:03:00,
2013-12-26 07:08:00,20.1,9.2,30.33,North,0,0.0,0.0,62,0.00,,,0.00,pywws,2013-12-26 12:08:00,
2013-12-26 07:16:00,19.9,9.0,30.32,North,0,0.0,0.0,62,0.00,,,0.00,pywws,2013-12-26 12:16:00,
2013-12-26 07:22:00,19.9,9.0,30.32,North,0,0.0,0.0,62,0.00,,,0.00,pywws,2013-12-26 12:22:00,
2013-12-26 07:28:00,20.1,9.2,30.32,North,0,0.0,0.0,62,0.00,,,0.00,pywws,2013-12-26 12:28:00,
2013-12-26 07:33:00,20.1,9.2,30.32,North,0,0.0,0.0,62,0.00,,,0.00,pywws,2013-12-26 12:33:00,
2013-12-26 07:39:00,20.1,9.2,30.32,North,0,0.0,0.0,62,0.00,,,0.00,pywws,2013-12-26 12:39:00,
2013-12-26 07:44:00,20.3,9.4,30.31,North,0,0.0,0.0,62,0.00,,,0.00,pywws,2013-12-26 12:44:00,
2013-12-26 07:50:00,20.3,9.4,30.32,North,0,0.0,0.0,62,0.00,,,0.00,pywws,2013-12-26 12:50:00,
2013-12-26 07:56:00,20.7,10.1,30.32,North,0,0.0,0.0,63,0.00,,,0.00,pywws,2013-12-26 12:56:00,
2013-12-26 08:03:00,20.8,10.3,30.32,East,90,0.0,0.0,63,0.00,,,0.00,pywws,2013-12-26 13:03:00,
2013-12-26 08:08:00,21.0,10.1,30.32,North,0,0.0,0.0,62,0.00,,,0.00,pywws,2013-12-26 13:08:00,
2013-12-26 08:14:00,21.2,9.9,30.32,North,0,0.0,0.0,61,0.00,,,0.00,pywws,2013-12-26 13:14:00,
2013-12-26 08:21:00,21.2,9.9,30.31,North,0,0.0,0.0,61,0.00,,,0.00,pywws,2013-12-26 13:21:00,
2013-12-26 08:27:00,21.2,9.9,30.31,North,0,0.0,0.0,61,0.00,,,0.00,pywws,2013-12-26 13:27:00,
2013-12-26 08:32:00,21.4,10.1,30.31,North,0,0.0,0.0,61,0.00,,,0.00,pywws,2013-12-26 13:32:00,
2013-12-26 08:39:00,21.4,10.1,30.31,North,0,0.0,0.0,61,0.00,,,0.00,pywws,2013-12-26 13:39:00,
2013-12-26 08:44:00,21.7,10.4,30.32,North,0,0.0,0.0,61,0.00,,,0.00,pywws,2013-12-26 13:44:00,
2013-12-26 08:50:00,21.9,10.6,30.32,East,90,0.0,0.0,61,0.00,,,0.00,pywws,2013-12-26 13:50:00,
2013-12-26 08:56:00,22.1,10.7,30.32,North,0,0.0,0.0,61,0.00,,,0.00,pywws,2013-12-26 13:56:00,
2013-12-26 09:01:00,22.3,10.9,30.32,North,0,0.0,0.0,61,0.00,,,0.00,pywws,2013-12-26 14:01:00,
2013-12-26 09:07:00,22.5,11.1,30.32,North,0,0.0,0.0,61,0.00,,,0.00,pywws,2013-12-26 14:07:00,
2013-12-26 09:12:00,22.8,11.4,30.32,NE,45,0.0,0.0,61,0.00,,,0.00,pywws,2013-12-26 14:12:00,
2013-12-26 09:18:00,22.6,10.9,30.32,North,0,0.0,0.0,60,0.00,,,0.00,pywws,2013-12-26 14:18:00,
2013-12-26 09:24:00,22.8,11.0,30.32,North,0,0.0,0.0,60,0.00,,,0.00,pywws,2013-12-26 14:24:00,
2013-12-26 09:29:00,23.0,10.8,30.31,North,0,0.0,0.0,59,0.00,,,0.00,pywws,2013-12-26 14:29:00,
2013-12-26 09:36:00,23.5,11.7,30.31,North,0,0.0,0.0,60,0.00,,,0.00,pywws,2013-12-26 14:36:00,
2013-12-26 09:41:00,23.9,12.1,30.30,North,0,0.0,0.0,60,0.00,,,0.00,pywws,2013-12-26 14:41:00,
2013-12-26 09:47:00,24.1,11.9,30.29,North,0,0.0,0.0,59,0.00,,,0.00,pywws,2013-12-26 14:47:00,
2013-12-26 09:52:00,23.9,11.7,30.29,North,0,0.0,0.0,59,0.00,,,0.00,pywws,2013-12-26 14:52:00,
2013-12-26 09:58:00,24.1,11.9,30.29,North,0,0.0,0.0,59,0.00,,,0.00,pywws,2013-12-26 14:58:00,
2013-12-26 10:04:00,23.9,11.7,30.29,North,0,0.0,0.0,59,0.00,,,0.00,pywws,2013-12-26 15:04:00,
2013-12-26 10:09:00,23.9,11.7,30.29,North,0,0.0,0.0,59,0.00,,,0.00,pywws,2013-12-26 15:09:00,
2013-12-26 10:15:00,24.3,12.4,30.28,North,0,0.0,0.0,60,0.00,,,0.00,pywws,2013-12-26 15:15:00,
2013-12-26 10:20:00,25.0,13.1,30.28,North,0,0.0,0.0,60,0.00,,,0.00,pywws,2013-12-26 15:20:00,
2013-12-26 10:26:00,24.6,12.7,30.27,North,0,0.0,0.0,60,0.00,,,0.00,pywws,2013-12-26 15:26:00,
2013-12-26 10:32:00,24.6,12.7,30.26,East,90,0.0,0.0,60,0.00,,,0.00,pywws,2013-12-26 15:32:00,
2013-12-26 10:37:00,25.2,13.3,30.26,East,90,0.0,0.0,60,0.00,,,0.00,pywws,2013-12-26 15:37:00,
2013-12-26 10:43:00,25.2,13.3,30.25,East,90,0.0,0.0,60,0.00,,,0.00,pywws,2013-12-26 15:43:00,
2013-12-26 10:48:00,25.5,13.2,30.24,East,90,0.0,0.0,59,0.00,,,0.00,pywws,2013-12-26 15:48:00,
2013-12-26 10:54:00,25.0,12.7,30.24,North,0,0.0,0.0,59,0.00,,,0.00,pywws,2013-12-26 15:54:00,
2013-12-26 11:00:00,26.1,14.1,30.23,North,0,0.0,0.0,60,0.00,,,0.00,pywws,2013-12-26 16:00:00,
2013-12-26 11:06:00,26.1,14.1,30.22,North,0,0.0,0.0,60,0.00,,,0.00,pywws,2013-12-26 16:06:00,
2013-12-26 11:12:00,25.5,13.2,30.22,North,0,0.0,0.0,59,0.00,,,0.00,pywws,2013-12-26 16:12:00,
2013-12-26 11:17:00,26.6,14.2,30.21,North,0,0.0,0.0,59,0.00,,,0.00,pywws,2013-12-26 16:17:00,
2013-12-26 11:25:00,26.8,14.4,30.21,North,0,0.0,0.0,59,0.00,,,0.00,pywws,2013-12-26 16:25:00,
2013-12-26 11:31:00,27.0,14.6,30.20,East,90,0.0,0.0,59,0.00,,,0.00,pywws,2013-12-26 16:31:00,
2013-12-26 11:36:00,26.4,14.1,30.19,North,0,0.0,0.0,59,0.00,,,0.00,pywws,2013-12-26 16:36:00,
2013-12-26 11:42:00,27.3,14.9,30.18,North,0,0.0,0.0,59,0.00,,,0.00,pywws,2013-12-26 16:42:00,
2013-12-26 11:48:00,27.0,14.2,30.18,West,270,0.0,0.0,58,0.00,,,0.00,pywws,2013-12-26 16:48:00,
2013-12-26 11:53:00,27.5,15.5,30.17,West,270,0.0,0.0,60,0.00,,,0.00,pywws,2013-12-26 16:53:00,
2013-12-26 11:59:00,28.2,16.1,30.16,South,180,0.0,0.0,60,0.00,,,0.00,pywws,2013-12-26 16:59:00,
2013-12-26 12:05:00,28.4,17.4,30.16,North,0,0.0,0.0,63,0.00,,,0.00,pywws,2013-12-26 17:05:00,
2013-12-26 12:11:00,27.7,15.2,30.16,North,0,0.0,0.0,59,0.00,,,0.00,pywws,2013-12-26 17:11:00,
2013-12-26 12:16:00,28.6,18.0,30.14,North,0,0.0,0.0,64,0.00,,,0.00,pywws,2013-12-26 17:16:00,
2013-12-26 12:22:00,28.9,18.3,30.14,West,270,0.0,0.0,64,0.00,,,0.00,pywws,2013-12-26 17:22:00,
2013-12-26 12:28:00,28.2,16.1,30.14,North,0,0.0,0.0,60,0.00,,,0.00,pywws,2013-12-26 17:28:00,
2013-12-26 12:34:00,28.8,18.5,30.13,North,0,0.0,0.0,65,0.00,,,0.00,pywws,2013-12-26 17:34:00,
2013-12-26 12:40:00,28.0,16.4,30.13,North,0,0.0,0.0,61,0.00,,,0.00,pywws,2013-12-26 17:40:00,
2013-12-26 12:45:00,28.2,16.9,30.13,North,0,0.0,0.0,62,0.00,,,0.00,pywws,2013-12-26 17:45:00,
2013-12-26 12:51:00,27.3,16.4,30.12,North,0,0.0,0.0,63,0.00,,,0.00,pywws,2013-12-26 17:51:00,
2013-12-26 12:56:00,27.5,17.3,30.12,North,0,0.0,0.0,65,0.00,,,0.00,pywws,2013-12-26 17:56:00,
2013-12-26 13:02:00,27.7,18.2,30.11,North,0,0.0,0.0,67,0.00,,,0.00,pywws,2013-12-26 18:02:00,
2013-12-26 13:08:00,27.7,18.5,30.11,North,0,0.0,0.0,68,0.00,,,0.00,pywws,2013-12-26 18:08:00,
2013-12-26 13:13:00,28.0,19.5,30.11,North,0,0.0,0.0,70,0.00,,,0.00,pywws,2013-12-26 18:13:00,
2013-12-26 13:19:00,27.7,19.5,30.11,North,0,0.0,0.0,71,0.00,,,0.00,pywws,2013-12-26 18:19:00,
2013-12-26 13:25:00,27.1,19.3,30.11,North,0,0.0,0.0,72,0.00,,,0.00,pywws,2013-12-26 18:25:00,
2013-12-26 13:31:00,27.5,19.7,30.11,East,90,0.0,0.0,72,0.00,,,0.00,pywws,2013-12-26 18:31:00,
2013-12-26 13:36:00,27.5,20.0,30.10,North,0,0.0,0.0,73,0.00,,,0.00,pywws,2013-12-26 18:36:00,
2013-12-26 13:42:00,27.7,20.2,30.10,West,270,0.0,0.0,73,0.00,,,0.00,pywws,2013-12-26 18:42:00,
2013-12-26 13:48:00,27.3,19.8,30.10,North,0,0.0,0.0,73,0.00,,,0.00,pywws,2013-12-26 18:48:00,
2013-12-26 13:53:00,27.7,20.5,30.10,West,270,0.0,0.0,74,0.00,,,0.00,pywws,2013-12-26 18:53:00,
2013-12-26 13:59:00,28.4,22.4,30.09,West,270,0.0,0.0,78,0.00,,,0.00,pywws,2013-12-26 18:59:00,
2013-12-26 14:04:00,28.2,21.3,30.09,North,0,0.0,0.0,75,0.00,,,0.00,pywws,2013-12-26 19:04:00,
2013-12-26 14:10:00,28.0,20.8,30.09,West,270,0.0,0.0,74,0.00,,,0.00,pywws,2013-12-26 19:10:00,
2013-12-26 14:16:00,28.0,21.2,30.09,West,270,0.0,0.0,75,0.00,,,0.00,pywws,2013-12-26 19:16:00,
2013-12-26 14:21:00,28.4,22.7,30.09,West,270,0.0,0.0,79,0.00,,,0.00,pywws,2013-12-26 19:21:00,
2013-12-26 14:27:00,28.4,22.7,30.09,West,270,0.0,0.0,79,0.00,,,0.00,pywws,2013-12-26 19:27:00,
2013-12-26 14:32:00,28.8,23.1,30.09,West,270,0.0,0.0,79,0.00,,,0.00,pywws,2013-12-26 19:32:00,
2013-12-26 14:38:00,29.1,23.4,30.09,West,270,0.0,0.0,79,0.00,,,0.00,pywws,2013-12-26 19:38:00,
2013-12-26 14:44:00,28.9,23.3,30.08,North,0,0.0,0.0,79,0.00,,,0.00,pywws,2013-12-26 19:44:00,
2013-12-26 14:49:00,29.8,24.1,30.08,East,90,0.0,0.0,79,0.00,,,0.00,pywws,2013-12-26 19:49:00,
2013-12-26 14:55:00,31.3,25.2,30.08,North,0,0.0,0.0,78,0.00,,,0.00,pywws,2013-12-26 19:55:00,
2013-12-26 15:00:00,30.9,24.6,30.08,West,270,0.0,0.0,77,0.00,,,0.00,pywws,2013-12-26 20:00:00,
2013-12-26 15:06:00,30.6,23.9,30.08,North,0,0.0,0.0,76,0.00,,,0.00,pywws,2013-12-26 20:06:00,
2013-12-26 15:12:00,29.7,23.4,30.07,West,270,0.0,0.0,77,0.00,,,0.00,pywws,2013-12-26 20:12:00,
2013-12-26 15:17:00,29.3,22.7,30.07,West,270,0.0,0.0,76,0.00,,,0.00,pywws,2013-12-26 20:17:00,
2013-12-26 15:23:00,29.8,23.5,30.08,West,270,0.0,0.0,77,0.00,,,0.00,pywws,2013-12-26 20:23:00,
2013-12-26 15:28:00,30.0,23.7,30.08,West,270,0.0,0.0,77,0.00,,,0.00,pywws,2013-12-26 20:28:00,
2013-12-26 15:34:00,29.7,23.4,30.07,East,90,0.0,0.0,77,0.00,,,0.00,pywws,2013-12-26 20:34:00,
2013-12-26 15:40:00,29.3,23.0,30.08,East,90,0.0,0.0,77,0.00,,,0.00,pywws,2013-12-26 20:40:00,
2013-12-26 15:46:00,28.9,22.7,30.08,West,270,0.0,0.0,77,0.00,,,0.00,pywws,2013-12-26 20:46:00,
2013-12-26 15:52:00,28.6,22.3,30.08,West,270,0.0,0.0,77,0.00,,,0.00,pywws,2013-12-26 20:52:00,
2013-12-26 15:57:00,28.9,23.0,30.08,NW,315,0.0,0.0,78,0.00,,,0.00,pywws,2013-12-26 20:57:00,
2013-12-26 16:03:00,29.5,23.8,30.09,SE,135,0.0,0.0,79,0.00,,,0.00,pywws,2013-12-26 21:03:00,
2013-12-26 16:08:00,30.2,24.2,30.08,North,0,0.0,0.0,78,0.00,,,0.00,pywws,2013-12-26 21:08:00,
2013-12-26 16:14:00,30.9,24.6,30.08,West,270,0.0,0.0,77,0.00,,,0.00,pywws,2013-12-26 21:14:00,
2013-12-26 16:20:00,30.9,24.3,30.08,SW,225,0.0,0.0,76,0.00,,,0.00,pywws,2013-12-26 21:20:00,
2013-12-26 16:25:00,30.7,23.8,30.08,SE,135,0.0,0.0,75,0.00,,,0.00,pywws,2013-12-26 21:25:00,
2013-12-26 16:31:00,30.6,23.6,30.08,North,0,0.0,0.0,75,0.00,,,0.00,pywws,2013-12-26 21:31:00,
2013-12-26 16:36:00,30.4,23.4,30.08,West,270,0.0,0.0,75,0.00,,,0.00,pywws,2013-12-26 21:36:00,
2013-12-26 16:42:00,29.8,22.9,30.08,SW,225,0.0,0.0,75,0.00,,,0.00,pywws,2013-12-26 21:42:00,
2013-12-26 16:48:00,29.3,22.4,30.08,South,180,0.0,0.0,75,0.00,,,0.00,pywws,2013-12-26 21:48:00,
2013-12-26 16:53:00,29.1,22.2,30.09,South,180,0.0,0.0,75,0.00,,,0.00,pywws,2013-12-26 21:53:00,
2013-12-26 16:59:00,28.9,22.3,30.09,SW,225,0.0,0.0,76,0.00,,,0.00,pywws,2013-12-26 21:59:00,
2013-12-26 17:04:00,28.9,22.3,30.09,NW,315,0.0,0.0,76,0.00,,,0.00,pywws,2013-12-26 22:04:00,
2013-12-26 17:10:00,28.6,22.0,30.09,North,0,0.0,0.0,76,0.00,,,0.00,pywws,2013-12-26 22:10:00,
2013-12-26 17:16:00,28.6,22.0,30.09,SW,225,0.0,0.7,76,0.00,,,0.00,pywws,2013-12-26 22:16:00,
2013-12-26 17:21:00,28.2,20.0,30.10,South,180,0.0,0.0,71,0.00,,,0.00,pywws,2013-12-26 22:21:00,
2013-12-26 17:27:00,28.2,20.4,30.10,West,270,0.0,0.0,72,0.00,,,0.00,pywws,2013-12-26 22:27:00,
2013-12-26 17:32:00,28.4,21.8,30.10,SW,225,0.0,0.0,76,0.00,,,0.00,pywws,2013-12-26 22:32:00,
2013-12-26 17:38:00,28.0,19.9,30.11,West,270,0.0,0.0,71,0.00,,,0.00,pywws,2013-12-26 22:38:00,
2013-12-26 17:44:00,28.2,20.0,30.11,South,180,0.0,0.0,71,0.00,,,0.00,pywws,2013-12-26 22:44:00,
2013-12-26 17:49:00,28.0,19.9,30.11,East,90,0.0,0.0,71,0.00,,,0.00,pywws,2013-12-26 22:49:00,
2013-12-26 17:55:00,28.0,19.9,30.11,West,270,0.0,0.0,71,0.00,,,0.00,pywws,2013-12-26 22:55:00,
2013-12-26 18:00:00,27.9,19.7,30.12,West,270,0.0,0.7,71,0.00,,,0.00,pywws,2013-12-26 23:00:00,
2013-12-26 18:06:00,27.9,20.0,30.12,West,270,0.0,0.0,72,0.00,,,0.00,pywws,2013-12-26 23:06:00,
2013-12-26 18:12:00,27.7,19.5,30.13,South,180,0.0,0.0,71,0.00,,,0.00,pywws,2013-12-26 23:12:00,
2013-12-26 18:17:00,27.5,19.4,30.13,NW,315,0.0,0.0,71,0.00,,,0.00,pywws,2013-12-26 23:17:00,
2013-12-26 18:23:00,27.0,18.8,30.14,West,270,0.0,0.0,71,0.00,,,0.00,pywws,2013-12-26 23:23:00,
2013-12-26 18:28:00,27.1,19.3,30.14,West,270,0.0,0.0,72,0.00,,,0.00,pywws,2013-12-26 23:28:00,
2013-12-26 18:34:00,26.6,18.8,30.14,East,90,0.0,0.0,72,0.00,,,0.00,pywws,2013-12-26 23:34:00,
2013-12-26 18:40:00,26.2,18.8,30.15,North,0,0.0,0.0,73,0.00,,,0.00,pywws,2013-12-26 23:40:00,
2013-12-26 18:45:00,25.9,18.4,30.15,South,180,0.0,0.0,73,0.00,,,0.00,pywws,2013-12-26 23:45:00,
2013-12-26 18:51:00,25.7,18.3,30.15,East,90,0.0,0.0,73,0.00,,,0.00,pywws,2013-12-26 23:51:00,
2013-12-26 18:52:00,25.5,18.1,30.15,East,90,0.0,0.0,73,0.00,,,0.00,pywws,2013-12-26 23:52:00,
2013-12-26 18:58:00,24.6,17.5,30.15,South,180,0.0,0.0,74,0.00,,,0.00,pywws,2013-12-26 23:58:00,
2013-12-26 19:04:00,24.8,17.4,30.15,East,90,0.0,0.0,73,0.00,,,0.00,pywws,2013-12-27 00:04:00,
2013-12-26 19:09:00,24.1,17.3,30.16,East,90,0.0,0.0,75,0.00,,,0.00,pywws,2013-12-27 00:09:00,
2013-12-26 19:15:00,25.9,18.8,30.16,West,270,0.0,0.0,74,0.00,,,0.00,pywws,2013-12-27 00:15:00,
2013-12-26 19:20:00,25.3,18.5,30.16,East,90,0.0,0.0,75,0.00,,,0.00,pywws,2013-12-27 00:20:00,
2013-12-26 19:26:00,25.0,18.2,30.16,East,90,0.0,0.0,75,0.00,,,0.00,pywws,2013-12-27 00:26:00,
2013-12-26 19:32:00,24.1,17.3,30.16,North,0,0.0,0.0,75,0.00,,,0.00,pywws,2013-12-27 00:32:00,
2013-12-26 19:37:00,23.5,16.8,30.16,North,0,0.0,0.0,75,0.00,,,0.00,pywws,2013-12-27 00:37:00,
2013-12-26 19:43:00,23.4,16.6,30.17,West,270,0.0,0.0,75,0.00,,,0.00,pywws,2013-12-27 00:43:00,
2013-12-26 19:48:00,23.0,16.3,30.17,West,270,0.0,0.0,75,0.00,,,0.00,pywws,2013-12-27 00:48:00,
2013-12-26 19:54:00,22.6,16.2,30.17,NW,315,0.0,0.0,76,0.00,,,0.00,pywws,2013-12-27 00:54:00,
2013-12-26 20:00:00,23.2,16.8,30.17,NE,45,0.0,0.0,76,0.00,,,0.00,pywws,2013-12-27 01:00:00,
2013-12-26 20:06:00,25.2,18.7,30.17,NW,315,0.0,0.0,76,0.00,,,0.00,pywws,2013-12-27 01:06:00,
2013-12-26 20:12:00,26.1,19.6,30.17,South,180,0.0,0.0,76,0.00,,,0.00,pywws,2013-12-27 01:12:00,
2013-12-26 20:21:00,26.4,19.9,30.17,West,270,0.0,0.0,76,0.00,,,0.00,pywws,2013-12-27 01:21:00,
2013-12-26 20:27:00,25.2,18.1,30.17,SE,135,0.0,0.0,74,0.00,,,0.00,pywws,2013-12-27 01:27:00,
2013-12-26 20:32:00,24.8,17.4,30.17,West,270,0.0,0.0,73,0.00,,,0.00,pywws,2013-12-27 01:32:00,
2013-12-26 20:38:00,25.3,18.2,30.17,East,90,0.0,0.0,74,0.00,,,0.00,pywws,2013-12-27 01:38:00,
2013-12-26 20:44:00,25.7,18.6,30.17,South,180,0.0,0.0,74,0.00,,,0.00,pywws,2013-12-27 01:44:00,
2013-12-26 20:49:00,25.5,18.1,30.16,SW,225,0.0,0.0,73,0.00,,,0.00,pywws,2013-12-27 01:49:00,
2013-12-26 20:55:00,25.0,17.6,30.16,North,0,0.0,0.0,73,0.00,,,0.00,pywws,2013-12-27 01:55:00,
2013-12-26 21:00:00,26.4,19.0,30.16,North,0,0.0,0.0,73,0.00,,,0.00,pywws,2013-12-27 02:00:00,
2013-12-26 21:06:00,25.7,18.3,30.16,West,270,0.0,0.0,73,0.00,,,0.00,pywws,2013-12-27 02:06:00,
2013-12-26 21:12:00,24.4,17.0,30.16,West,270,0.0,0.0,73,0.00,,,0.00,pywws,2013-12-27 02:12:00,
2013-12-26 21:17:00,23.5,16.2,30.16,West,270,0.0,0.0,73,0.00,,,0.00,pywws,2013-12-27 02:17:00,
2013-12-26 21:23:00,23.4,16.0,30.17,West,270,0.0,0.0,73,0.00,,,0.00,pywws,2013-12-27 02:23:00,
2013-12-26 21:28:00,24.3,17.2,30.17,West,270,0.0,0.0,74,0.00,,,0.00,pywws,2013-12-27 02:28:00,
2013-12-26 21:34:00,23.2,16.1,30.17,West,270,0.0,0.0,74,0.00,,,0.00,pywws,2013-12-27 02:34:00,
2013-12-26 21:40:00,21.9,15.2,30.17,West,270,0.0,0.0,75,0.00,,,0.00,pywws,2013-12-27 02:40:00,
2013-12-26 21:46:00,23.4,16.6,30.17,South,180,0.0,0.0,75,0.00,,,0.00,pywws,2013-12-27 02:46:00,
2013-12-26 21:52:00,22.8,16.4,30.17,South,180,0.0,0.0,76,0.00,,,0.00,pywws,2013-12-27 02:52:00,
2013-12-26 21:57:00,22.8,16.4,30.17,South,180,0.0,0.0,76,0.00,,,0.00,pywws,2013-12-27 02:57:00,
2013-12-26 22:03:00,23.2,16.8,30.18,East,90,0.0,0.0,76,0.00,,,0.00,pywws,2013-12-27 03:03:00,
2013-12-26 22:09:00,22.1,16.0,30.18,East,90,0.0,0.0,77,0.00,,,0.00,pywws,2013-12-27 03:09:00,
2013-12-26 22:15:00,21.2,14.8,30.18,East,90,0.0,0.0,76,0.00,,,0.00,pywws,2013-12-27 03:15:00,
2013-12-26 22:21:00,19.9,13.9,30.18,East,90,0.0,0.0,77,0.00,,,0.00,pywws,2013-12-27 03:21:00,
2013-12-26 22:31:00,21.4,15.0,30.19,North,0,0.0,0.0,76,0.00,,,0.00,pywws,2013-12-27 03:31:00,
2013-12-26 22:37:00,20.5,14.7,30.18,East,90,0.0,0.0,78,0.00,,,0.00,pywws,2013-12-27 03:37:00,
2013-12-26 22:43:00,23.0,16.9,30.18,West,270,0.0,0.0,77,0.00,,,0.00,pywws,2013-12-27 03:43:00,
2013-12-26 22:49:00,22.3,16.5,30.19,South,180,0.0,0.0,78,0.00,,,0.00,pywws,2013-12-27 03:49:00,
2013-12-26 22:55:00,23.2,17.4,30.19,West,270,0.0,0.0,78,0.00,,,0.00,pywws,2013-12-27 03:55:00,
2013-12-26 23:01:00,22.6,17.1,30.19,North,0,0.0,0.0,79,0.00,,,0.00,pywws,2013-12-27 04:01:00,
2013-12-26 23:07:00,22.1,16.3,30.19,North,0,0.0,0.0,78,0.00,,,0.00,pywws,2013-12-27 04:07:00,
2013-12-26 23:13:00,22.6,16.8,30.19,East,90,0.0,0.0,78,0.00,,,0.00,pywws,2013-12-27 04:13:00,
2013-12-26 23:18:00,21.7,16.0,30.19,East,90,0.0,0.0,78,0.00,,,0.00,pywws,2013-12-27 04:18:00,
2013-12-26 23:24:00,20.5,15.0,30.19,East,90,0.0,0.0,79,0.00,,,0.00,pywws,2013-12-27 04:24:00,
2013-12-26 23:30:00,19.8,14.0,30.19,East,90,0.0,0.0,78,0.00,,,0.00,pywws,2013-12-27 04:30:00,
2013-12-26 23:36:00,19.9,14.2,30.20,East,90,0.0,0.0,78,0.00,,,0.00,pywws,2013-12-27 04:36:00,
2013-12-26 23:41:00,18.9,12.0,30.19,East,90,0.0,0.0,74,0.00,,,0.00,pywws,2013-12-27 04:41:00,
2013-12-26 23:47:00,18.5,11.6,30.19,East,90,0.0,0.0,74,0.00,,,0.00,pywws,2013-12-27 04:47:00,
2013-12-26 23:53:00,18.5,11.6,30.19,East,90,0.0,0.0,74,0.00,,,0.00,pywws,2013-12-27 04:53:00,
2013-12-26 23:59:00,17.4,10.9,30.19,East,90,0.0,0.0,75,0.00,,,0.00,pywws,2013-12-27 04:59:00,